createdAt,value
2023-02-02T00:00:21.420Z,61.80
2023-02-02T00:05:44.416Z,61.80
2023-02-02T00:11:09.461Z,61.80
2023-02-02T00:16:44.441Z,61.90
2023-02-02T00:22:08.437Z,61.90
2023-02-02T00:27:33.412Z,62.00
2023-02-02T00:32:58.435Z,62.00
2023-02-02T00:38:21.435Z,62.00
2023-02-02T00:43:46.441Z,61.90
2023-02-02T00:49:09.454Z,61.90
2023-02-02T00:54:32.510Z,61.80
2023-02-02T00:59:57.450Z,61.60
2023-02-02T01:05:21.741Z,61.40
2023-02-02T01:10:45.456Z,61.30
2023-02-02T01:16:11.474Z,61.10
2023-02-02T01:21:34.467Z,61.00
2023-02-02T01:26:57.478Z,60.90
2023-02-02T01:32:22.469Z,60.40
2023-02-02T01:37:45.532Z,59.90
2023-02-02T01:48:51.505Z,60.40
2023-02-02T01:54:17.496Z,60.90
2023-02-02T01:59:43.494Z,61.20
2023-02-02T02:05:09.492Z,61.30
2023-02-02T02:10:32.477Z,61.30
2023-02-02T02:16:19.567Z,61.40
2023-02-02T02:22:15.505Z,61.40
2023-02-02T02:28:02.509Z,61.30
2023-02-02T02:33:34.503Z,61.20
2023-02-02T02:39:04.531Z,61.20
2023-02-02T02:44:28.503Z,61.20
2023-02-02T02:49:58.973Z,61.20
2023-02-02T02:55:22.673Z,61.20
2023-02-02T03:01:00.539Z,61.20
2023-02-02T03:06:30.759Z,61.30
2023-02-02T03:11:54.574Z,61.30
2023-02-02T03:17:17.549Z,61.30
2023-02-02T03:22:42.568Z,61.40
2023-02-02T03:28:06.539Z,61.40
2023-02-02T03:33:30.543Z,61.50
2023-02-02T03:38:55.571Z,61.50
2023-02-02T03:44:18.567Z,61.60
2023-02-02T03:49:41.557Z,61.60
2023-02-02T03:55:06.551Z,61.80
2023-02-02T04:00:30.540Z,61.60
2023-02-02T04:05:53.557Z,61.80
2023-02-02T04:11:18.557Z,61.70
2023-02-02T04:16:43.577Z,62.00
2023-02-02T04:22:13.558Z,61.90
2023-02-02T04:27:40.604Z,62.00
2023-02-02T04:33:05.585Z,62.10
2023-02-02T04:38:28.566Z,62.10
2023-02-02T04:44:00.639Z,62.30
2023-02-02T04:49:23.599Z,62.50
2023-02-02T04:54:47.584Z,62.50
2023-02-02T05:00:12.569Z,62.60
2023-02-02T05:05:35.589Z,62.70
2023-02-02T05:10:58.598Z,62.70
2023-02-02T05:16:23.680Z,62.80
2023-02-02T05:21:46.999Z,62.80
2023-02-02T05:27:10.640Z,62.90
2023-02-02T05:32:36.617Z,62.90
2023-02-02T05:37:59.650Z,63.00
2023-02-02T05:43:22.615Z,63.00
2023-02-02T05:48:48.650Z,63.10
2023-02-02T05:54:11.670Z,63.00
2023-02-02T05:59:34.632Z,63.20
2023-02-02T06:04:59.620Z,63.10
2023-02-02T06:10:23.629Z,63.20
2023-02-02T06:15:48.691Z,63.20
2023-02-02T06:21:13.636Z,63.30
2023-02-02T06:26:36.749Z,63.40
2023-02-02T06:32:04.806Z,63.30
2023-02-02T06:37:30.762Z,63.50
2023-02-02T06:42:53.640Z,63.70
2023-02-02T06:48:17.648Z,63.60
2023-02-02T06:53:42.671Z,63.70
2023-02-02T06:59:05.664Z,63.70
2023-02-02T07:04:28.641Z,63.90
2023-02-02T07:09:58.373Z,63.90
2023-02-02T07:15:23.094Z,64.00
2023-02-02T07:20:45.671Z,64.00
2023-02-02T07:26:16.696Z,64.10
2023-02-02T07:31:39.779Z,64.10
2023-02-02T07:37:02.659Z,64.10
2023-02-02T07:42:27.670Z,64.10
2023-02-02T07:47:50.697Z,64.10
2023-02-02T07:59:08.238Z,64.20
2023-02-02T08:04:11.168Z,64.20
2023-02-02T08:09:14.127Z,64.20
2023-02-02T08:14:18.535Z,64.30
2023-02-02T08:19:21.487Z,64.30
2023-02-02T08:24:24.604Z,64.30
2023-02-02T08:29:29.084Z,64.30
2023-02-02T08:34:34.812Z,64.40
2023-02-02T08:39:37.810Z,64.40
2023-02-02T08:46:00.204Z,64.40
2023-02-02T08:50:05.632Z,64.40
2023-02-02T08:55:09.172Z,64.40
2023-02-02T09:00:15.117Z,64.40
2023-02-02T09:05:18.823Z,64.50
2023-02-02T09:10:21.877Z,64.50
2023-02-02T09:15:26.524Z,64.60
2023-02-02T09:20:29.714Z,64.60
2023-02-02T09:25:32.660Z,64.60
2023-02-02T09:30:37.100Z,65.40
2023-02-02T09:35:40.090Z,64.80
2023-02-02T09:40:43.143Z,64.90
2023-02-02T09:45:56.334Z,64.90
2023-02-02T09:51:02.417Z,65.00
2023-02-02T09:56:09.362Z,64.90
2023-02-02T10:01:17.258Z,64.90
2023-02-02T10:06:30.456Z,64.90
2023-02-02T10:11:38.258Z,64.90
2023-02-02T10:16:42.933Z,65.00
2023-02-02T10:21:53.083Z,65.00
2023-02-02T10:26:57.831Z,65.10
2023-02-02T10:32:14.658Z,65.10
2023-02-02T10:37:27.893Z,65.10
2023-02-02T10:42:38.301Z,65.10
2023-02-02T10:47:42.774Z,65.10
2023-02-02T10:52:49.548Z,65.10
2023-02-02T10:58:01.697Z,65.30
2023-02-02T11:03:07.271Z,65.30
2023-02-02T11:08:19.999Z,65.20
2023-02-02T11:13:29.927Z,65.30
2023-02-02T11:18:34.306Z,65.40
2023-02-02T11:23:38.146Z,65.40
2023-02-02T11:28:41.706Z,65.40
2023-02-02T11:33:46.303Z,65.30
2023-02-02T11:38:49.313Z,65.30
2023-02-02T11:43:55.138Z,65.30
2023-02-02T11:49:03.515Z,65.50
2023-02-02T11:54:13.628Z,65.60
2023-02-02T11:59:31.181Z,65.60
2023-02-02T12:04:35.497Z,65.60
2023-02-02T12:09:38.572Z,65.60
2023-02-02T12:14:52.717Z,65.50
2023-02-02T12:20:36.800Z,65.60
2023-02-02T12:25:55.741Z,65.60
2023-02-02T12:31:09.403Z,65.60
2023-02-02T12:36:31.507Z,65.50
2023-02-02T12:42:22.460Z,65.40
2023-02-02T12:47:31.460Z,65.40
2023-02-02T12:53:00.284Z,65.30
2023-02-02T12:58:13.813Z,65.40
2023-02-02T13:03:31.343Z,65.40
2023-02-02T13:08:43.817Z,65.40
2023-02-02T13:13:46.797Z,65.30
2023-02-02T13:18:54.174Z,65.20
2023-02-02T13:24:01.643Z,65.20
2023-02-02T13:29:09.313Z,65.10
2023-02-02T13:34:19.411Z,65.00
2023-02-02T13:39:30.911Z,65.00
2023-02-02T13:44:38.398Z,65.00
2023-02-02T13:49:46.351Z,64.90
2023-02-02T13:55:16.209Z,64.90
2023-02-02T14:00:23.051Z,64.70
2023-02-02T14:05:29.551Z,64.60
2023-02-02T14:10:37.290Z,64.60
2023-02-02T14:15:41.940Z,64.60
2023-02-02T14:20:48.125Z,64.60
2023-02-02T14:26:06.852Z,64.70
2023-02-02T14:31:51.876Z,64.60
2023-02-02T14:37:02.414Z,64.60
2023-02-02T14:42:55.171Z,64.50
2023-02-02T14:48:01.369Z,64.40
2023-02-02T14:53:08.306Z,64.30
2023-02-02T14:58:29.702Z,64.30
2023-02-02T15:03:49.673Z,64.40
2023-02-02T15:09:27.692Z,64.30
2023-02-02T15:14:38.022Z,64.30
2023-02-02T15:19:45.094Z,64.30
2023-02-02T15:24:48.623Z,64.20
2023-02-02T15:29:56.996Z,64.20
2023-02-02T15:35:04.467Z,64.30
2023-02-02T15:40:15.054Z,64.30
2023-02-02T15:45:35.790Z,64.30
2023-02-02T15:50:39.637Z,64.30
2023-02-02T15:55:42.648Z,64.20
2023-02-02T16:00:46.951Z,64.20
2023-02-02T16:05:52.681Z,64.20
2023-02-02T16:11:04.748Z,64.20
2023-02-02T16:16:23.955Z,64.20
2023-02-02T16:21:28.813Z,64.00
2023-02-02T16:26:33.593Z,64.00
2023-02-02T16:31:38.078Z,64.10
2023-02-02T16:36:41.194Z,64.10
2023-02-02T16:41:47.297Z,64.00
2023-02-02T16:46:52.954Z,63.90
2023-02-02T16:52:11.158Z,63.90
2023-02-02T16:57:20.476Z,63.70
2023-02-02T17:02:32.034Z,63.70
2023-02-02T17:07:38.619Z,63.60
2023-02-02T17:12:41.523Z,63.60
2023-02-02T17:17:47.704Z,63.60
2023-02-02T17:22:55.373Z,63.50
2023-02-02T17:28:00.785Z,63.80
2023-02-02T17:33:05.178Z,63.40
2023-02-02T17:38:08.159Z,63.30
2023-02-02T17:43:12.718Z,63.30
2023-02-02T17:48:17.018Z,63.30
2023-02-02T17:53:21.835Z,63.30
2023-02-02T17:58:24.746Z,63.20
2023-02-02T18:03:33.954Z,63.30
2023-02-02T18:08:37.202Z,63.30
2023-02-02T18:13:41.095Z,63.40
2023-02-02T18:18:45.802Z,63.30
2023-02-02T18:23:49.559Z,64.10
2023-02-02T18:28:53.375Z,63.40
2023-02-02T18:33:57.709Z,63.40
2023-02-02T18:39:00.898Z,63.40
2023-02-02T18:44:03.879Z,64.00
2023-02-02T18:49:08.488Z,63.20
2023-02-02T18:54:12.115Z,63.20
2023-02-02T18:59:15.574Z,63.10
2023-02-02T19:04:19.851Z,63.00
2023-02-02T19:09:22.878Z,63.10
2023-02-02T19:14:31.035Z,63.00
2023-02-02T19:19:35.618Z,63.00
2023-02-02T19:24:40.235Z,63.10
2023-02-02T19:29:43.300Z,63.10
2023-02-02T19:34:48.411Z,63.00
2023-02-02T19:39:51.954Z,63.10
2023-02-02T19:44:55.269Z,63.10
2023-02-02T19:50:00.605Z,63.00
2023-02-02T19:55:03.702Z,63.00
2023-02-02T20:00:20.297Z,63.00
2023-02-02T20:05:25.909Z,63.10
2023-02-02T20:10:34.368Z,63.10
2023-02-02T20:15:40.036Z,63.10
2023-02-02T20:20:46.122Z,62.90
2023-02-02T20:25:49.333Z,63.00
2023-02-02T20:30:52.407Z,63.10
2023-02-02T20:35:56.830Z,63.00
2023-02-02T20:41:00.461Z,63.00
2023-02-02T20:46:03.573Z,63.00
2023-02-02T20:51:08.220Z,63.00
2023-02-02T20:56:11.155Z,63.00
2023-02-02T21:01:14.221Z,63.20
2023-02-02T21:06:18.589Z,63.10
2023-02-02T21:11:21.638Z,63.20
2023-02-02T21:16:24.705Z,63.30
2023-02-02T21:21:29.066Z,63.30
2023-02-02T21:26:32.018Z,63.50
2023-02-02T21:31:37.427Z,63.60
2023-02-02T21:36:44.994Z,63.70
2023-02-02T21:41:48.634Z,63.80
2023-02-02T21:46:52.953Z,63.80
2023-02-02T21:52:00.149Z,63.70
2023-02-02T21:57:06.216Z,63.60
2023-02-02T22:02:34.541Z,63.80
2023-02-02T22:07:39.146Z,63.70
2023-02-02T22:12:42.998Z,63.50
2023-02-02T22:17:46.909Z,63.50
2023-02-02T22:22:53.028Z,63.50
2023-02-02T22:27:58.448Z,63.40
2023-02-02T22:33:01.670Z,63.40
2023-02-02T22:38:06.754Z,63.40
2023-02-02T22:43:09.685Z,63.30
2023-02-02T22:48:13.761Z,63.50
2023-02-02T22:53:18.573Z,63.40
2023-02-02T22:58:21.485Z,63.40
2023-02-02T23:03:24.519Z,63.30
2023-02-02T23:08:28.984Z,63.30
2023-02-02T23:13:31.942Z,63.20
2023-02-02T23:18:34.904Z,63.10
2023-02-02T23:23:39.259Z,63.00
2023-02-02T23:28:42.209Z,62.80
2023-02-02T23:33:45.172Z,63.00
2023-02-02T23:38:49.450Z,63.00
2023-02-02T23:43:52.985Z,63.10
2023-02-02T23:48:56.201Z,63.20
2023-02-02T23:54:01.570Z,63.10
2023-02-02T23:59:04.602Z,63.20
